Warner, Alberta

Past 24 Hour Conditions

This table is a summary of hourly weather conditions for the past 24 hours. This summary includes the following parameters: temperature, humidity, dew point, wind speed and direction, air pressure, visibility and/or wind chill and humidex.
Date / Time
(MDT)
Conditions Temp (°F) Humidity (%) Dew Point (°F) Wind (mph) Pressure (inches) Visibility (miles)
24 April 2014
00:00 N/A 38 47 19 12 N/A N/A
23 April 2014
23:00 N/A 36   52 20 10 N/A N/A
22:00 N/A 39 48 20 12 N/A N/A
21:00 N/A 40 46 21 14 N/A N/A
20:00 N/A 44 36 19 16 N/A N/A
19:00 N/A 48 29 17 19 N/A N/A
18:00 N/A 51 26 17 19 N/A N/A
17:00 N/A 52 25 17 23 N/A N/A
16:00 N/A 53   24 17 24 N/A N/A
15:00 N/A 52 22 14 18 N/A N/A
14:00 N/A 53   23 16 24 N/A N/A
13:00 N/A 52 24 16 24 N/A N/A
12:00 N/A 50 23 14 25 N/A N/A
11:00 N/A 48 27 16 27 N/A N/A
10:00 N/A 46 28 15 27 N/A N/A
9:00 N/A 44 31 15 27 N/A N/A
8:00 N/A 41 37 17 22 N/A N/A
7:00 N/A 38 46 19 16 N/A N/A
6:00 N/A 39 55 24 16 N/A N/A
5:00 N/A 40 60 28 21 N/A N/A
4:00 N/A 41 64 29 12 N/A N/A
3:00 N/A 41 68 31 11 N/A N/A
2:00 N/A 42 75 35 12 N/A N/A
1:00 N/A 43 73 35 9 N/A N/A
00:00 N/A 44 79 38 7 N/A N/A
N/A
Not available
 ↑ 
Highest temperature
 ↓ 
Lowest temperature

If you require additional historical weather information, please visit Climate Data Online.